Airports France Nantes Atlantique Airport

Nantes Atlantique Airport (LFRS / NTE)

Facts about Nantes Atlantique Airport

Name Nantes Atlantique Airport
City Nantes
Country France
ICAO code LFRS
IATA code NTE
Elevation 27.4320 meters (90 feet)

Weather

METAR

Metar data retrieved Saturday, 20 July 2024 at 00:55 UTC (10 minutes ago)

LFRS 200030Z AUTO 25004KT CAVOK 17/16 Q1014 NOSIG

Live traffic

Navigraph Charts (account required)